sensor_id;sensor_type;location;lat;lon;timestamp;P1;durP1;ratioP1;P2;durP2;ratioP2
44048;SDS011;29717;47.028;15.470;2023-11-21T00:01:11;29.47;;;19.77;;
44048;SDS011;29717;47.028;15.470;2023-11-21T00:03:38;27.13;;;19.73;;
44048;SDS011;29717;47.028;15.470;2023-11-21T00:06:06;27.67;;;20.60;;
44048;SDS011;29717;47.028;15.470;2023-11-21T00:08:33;25.57;;;19.57;;
44048;SDS011;29717;47.028;15.470;2023-11-21T00:11:00;26.30;;;19.30;;
44048;SDS011;29717;47.028;15.470;2023-11-21T00:13:27;25.27;;;18.30;;
44048;SDS011;29717;47.028;15.470;2023-11-21T00:15:55;23.23;;;18.33;;
44048;SDS011;29717;47.028;15.470;2023-11-21T00:18:22;26.13;;;18.07;;
44048;SDS011;29717;47.028;15.470;2023-11-21T00:20:49;22.10;;;16.37;;
44048;SDS011;29717;47.028;15.470;2023-11-21T00:23:15;23.50;;;18.33;;
44048;SDS011;29717;47.028;15.470;2023-11-21T00:25:43;24.17;;;18.03;;
44048;SDS011;29717;47.028;15.470;2023-11-21T00:28:10;25.07;;;18.30;;
44048;SDS011;29717;47.028;15.470;2023-11-21T00:30:36;24.40;;;18.80;;
44048;SDS011;29717;47.028;15.470;2023-11-21T00:33:04;24.50;;;18.17;;
44048;SDS011;29717;47.028;15.470;2023-11-21T00:35:31;23.57;;;17.20;;
44048;SDS011;29717;47.028;15.470;2023-11-21T00:37:57;22.80;;;17.30;;
44048;SDS011;29717;47.028;15.470;2023-11-21T00:40:24;22.40;;;18.87;;
44048;SDS011;29717;47.028;15.470;2023-11-21T00:42:51;23.03;;;17.73;;
44048;SDS011;29717;47.028;15.470;2023-11-21T00:45:17;20.83;;;17.50;;
44048;SDS011;29717;47.028;15.470;2023-11-21T00:47:44;25.33;;;18.33;;
44048;SDS011;29717;47.028;15.470;2023-11-21T00:50:12;20.73;;;17.40;;
44048;SDS011;29717;47.028;15.470;2023-11-21T00:52:39;26.00;;;18.47;;
44048;SDS011;29717;47.028;15.470;2023-11-21T00:55:06;26.97;;;18.50;;
44048;SDS011;29717;47.028;15.470;2023-11-21T00:57:33;22.13;;;17.00;;
44048;SDS011;29717;47.028;15.470;2023-11-21T01:00:00;22.00;;;17.20;;
44048;SDS011;29717;47.028;15.470;2023-11-21T01:02:32;20.13;;;17.27;;
44048;SDS011;29717;47.028;15.470;2023-11-21T01:05:00;20.20;;;17.00;;
44048;SDS011;29717;47.028;15.470;2023-11-21T01:07:29;23.03;;;17.07;;
44048;SDS011;29717;47.028;15.470;2023-11-21T01:09:55;23.10;;;17.73;;
44048;SDS011;29717;47.028;15.470;2023-11-21T01:12:22;25.23;;;17.97;;
44048;SDS011;29717;47.028;15.470;2023-11-21T01:14:50;24.43;;;18.00;;
44048;SDS011;29717;47.028;15.470;2023-11-21T01:17:17;23.07;;;16.70;;
44048;SDS011;29717;47.028;15.470;2023-11-21T01:19:44;20.40;;;16.03;;
44048;SDS011;29717;47.028;15.470;2023-11-21T01:22:10;23.20;;;16.07;;
44048;SDS011;29717;47.028;15.470;2023-11-21T01:24:39;22.47;;;16.43;;
44048;SDS011;29717;47.028;15.470;2023-11-21T01:27:06;26.23;;;17.40;;
44048;SDS011;29717;47.028;15.470;2023-11-21T01:29:34;23.47;;;16.70;;
44048;SDS011;29717;47.028;15.470;2023-11-21T01:32:01;25.83;;;16.33;;
44048;SDS011;29717;47.028;15.470;2023-11-21T01:34:28;21.23;;;15.80;;
44048;SDS011;29717;47.028;15.470;2023-11-21T01:36:55;22.50;;;16.27;;
44048;SDS011;29717;47.028;15.470;2023-11-21T01:39:22;21.87;;;16.70;;
44048;SDS011;29717;47.028;15.470;2023-11-21T01:41:51;24.83;;;16.40;;
44048;SDS011;29717;47.028;15.470;2023-11-21T01:44:18;22.60;;;16.53;;
44048;SDS011;29717;47.028;15.470;2023-11-21T01:46:45;20.10;;;16.33;;
44048;SDS011;29717;47.028;15.470;2023-11-21T01:49:13;21.20;;;15.60;;
44048;SDS011;29717;47.028;15.470;2023-11-21T01:51:40;23.10;;;15.87;;
44048;SDS011;29717;47.028;15.470;2023-11-21T01:54:08;20.03;;;15.73;;
44048;SDS011;29717;47.028;15.470;2023-11-21T01:56:37;22.53;;;16.53;;
44048;SDS011;29717;47.028;15.470;2023-11-21T01:59:06;20.37;;;16.30;;
44048;SDS011;29717;47.028;15.470;2023-11-21T02:01:33;21.70;;;16.70;;
44048;SDS011;29717;47.028;15.470;2023-11-21T02:03:58;19.50;;;15.67;;
44048;SDS011;29717;47.028;15.470;2023-11-21T02:06:25;18.80;;;15.50;;
44048;SDS011;29717;47.028;15.470;2023-11-21T02:08:56;22.33;;;16.27;;
44048;SDS011;29717;47.028;15.470;2023-11-21T02:11:22;20.27;;;15.97;;
44048;SDS011;29717;47.028;15.470;2023-11-21T02:13:49;22.03;;;17.40;;
44048;SDS011;29717;47.028;15.470;2023-11-21T02:16:20;22.70;;;17.37;;
44048;SDS011;29717;47.028;15.470;2023-11-21T02:18:47;23.40;;;17.40;;
44048;SDS011;29717;47.028;15.470;2023-11-21T02:21:15;23.60;;;17.63;;
44048;SDS011;29717;47.028;15.470;2023-11-21T02:23:43;21.97;;;17.53;;
44048;SDS011;29717;47.028;15.470;2023-11-21T02:26:11;24.23;;;17.93;;
44048;SDS011;29717;47.028;15.470;2023-11-21T02:28:39;24.40;;;17.27;;
44048;SDS011;29717;47.028;15.470;2023-11-21T02:31:06;24.63;;;16.53;;
44048;SDS011;29717;47.028;15.470;2023-11-21T02:33:33;22.67;;;17.43;;
44048;SDS011;29717;47.028;15.470;2023-11-21T02:35:59;18.60;;;16.20;;
44048;SDS011;29717;47.028;15.470;2023-11-21T02:38:26;23.03;;;15.60;;
44048;SDS011;29717;47.028;15.470;2023-11-21T02:40:55;19.20;;;14.57;;
44048;SDS011;29717;47.028;15.470;2023-11-21T02:43:22;20.77;;;15.50;;
44048;SDS011;29717;47.028;15.470;2023-11-21T02:45:49;21.63;;;15.63;;
44048;SDS011;29717;47.028;15.470;2023-11-21T02:48:15;18.23;;;14.73;;
44048;SDS011;29717;47.028;15.470;2023-11-21T02:50:42;22.03;;;15.20;;
44048;SDS011;29717;47.028;15.470;2023-11-21T02:53:09;20.90;;;14.67;;
44048;SDS011;29717;47.028;15.470;2023-11-21T02:55:36;17.43;;;13.97;;
44048;SDS011;29717;47.028;15.470;2023-11-21T02:58:04;18.77;;;14.03;;
44048;SDS011;29717;47.028;15.470;2023-11-21T03:00:31;20.23;;;14.50;;
44048;SDS011;29717;47.028;15.470;2023-11-21T03:02:58;21.93;;;14.67;;
44048;SDS011;29717;47.028;15.470;2023-11-21T03:05:24;18.73;;;13.23;;
44048;SDS011;29717;47.028;15.470;2023-11-21T03:07:51;23.53;;;14.10;;
44048;SDS011;29717;47.028;15.470;2023-11-21T03:10:17;16.43;;;13.83;;
44048;SDS011;29717;47.028;15.470;2023-11-21T03:12:44;18.47;;;13.33;;
44048;SDS011;29717;47.028;15.470;2023-11-21T03:15:12;16.47;;;12.83;;
44048;SDS011;29717;47.028;15.470;2023-11-21T03:17:39;16.60;;;12.40;;
44048;SDS011;29717;47.028;15.470;2023-11-21T03:20:06;18.23;;;12.77;;
44048;SDS011;29717;47.028;15.470;2023-11-21T03:22:36;17.83;;;13.40;;
44048;SDS011;29717;47.028;15.470;2023-11-21T03:25:03;17.50;;;12.43;;
44048;SDS011;29717;47.028;15.470;2023-11-21T03:27:30;18.87;;;12.40;;
44048;SDS011;29717;47.028;15.470;2023-11-21T03:29:56;16.37;;;12.13;;
44048;SDS011;29717;47.028;15.470;2023-11-21T03:32:24;17.63;;;13.10;;
44048;SDS011;29717;47.028;15.470;2023-11-21T03:34:54;18.00;;;13.37;;
44048;SDS011;29717;47.028;15.470;2023-11-21T03:37:22;17.90;;;12.97;;
44048;SDS011;29717;47.028;15.470;2023-11-21T03:39:50;19.83;;;14.63;;
44048;SDS011;29717;47.028;15.470;2023-11-21T03:42:16;19.97;;;15.93;;
44048;SDS011;29717;47.028;15.470;2023-11-21T03:44:43;24.43;;;15.93;;
44048;SDS011;29717;47.028;15.470;2023-11-21T03:47:09;19.93;;;15.87;;
44048;SDS011;29717;47.028;15.470;2023-11-21T03:49:37;19.73;;;15.03;;
44048;SDS011;29717;47.028;15.470;2023-11-21T03:52:05;19.10;;;14.70;;
44048;SDS011;29717;47.028;15.470;2023-11-21T03:54:32;18.97;;;15.43;;
44048;SDS011;29717;47.028;15.470;2023-11-21T03:56:59;20.13;;;14.30;;
44048;SDS011;29717;47.028;15.470;2023-11-21T03:59:26;21.23;;;14.80;;
44048;SDS011;29717;47.028;15.470;2023-11-21T04:01:54;18.33;;;13.60;;
44048;SDS011;29717;47.028;15.470;2023-11-21T04:04:21;16.70;;;13.47;;
44048;SDS011;29717;47.028;15.470;2023-11-21T04:06:49;18.57;;;14.10;;
44048;SDS011;29717;47.028;15.470;2023-11-21T04:09:17;21.17;;;14.23;;
44048;SDS011;29717;47.028;15.470;2023-11-21T04:11:43;21.37;;;15.53;;
44048;SDS011;29717;47.028;15.470;2023-11-21T04:14:12;20.17;;;15.60;;
44048;SDS011;29717;47.028;15.470;2023-11-21T04:16:38;20.20;;;15.00;;
44048;SDS011;29717;47.028;15.470;2023-11-21T04:19:05;20.40;;;15.13;;
44048;SDS011;29717;47.028;15.470;2023-11-21T04:21:32;20.53;;;15.90;;
44048;SDS011;29717;47.028;15.470;2023-11-21T04:24:00;21.07;;;14.73;;
44048;SDS011;29717;47.028;15.470;2023-11-21T04:26:26;24.77;;;15.90;;
44048;SDS011;29717;47.028;15.470;2023-11-21T04:28:53;18.67;;;15.10;;
44048;SDS011;29717;47.028;15.470;2023-11-21T04:31:19;21.13;;;15.37;;
44048;SDS011;29717;47.028;15.470;2023-11-21T04:33:46;22.73;;;15.83;;
44048;SDS011;29717;47.028;15.470;2023-11-21T04:36:13;23.53;;;16.60;;
44048;SDS011;29717;47.028;15.470;2023-11-21T04:38:39;23.93;;;15.37;;
44048;SDS011;29717;47.028;15.470;2023-11-21T04:41:08;22.57;;;16.37;;
44048;SDS011;29717;47.028;15.470;2023-11-21T04:43:34;22.70;;;16.13;;
44048;SDS011;29717;47.028;15.470;2023-11-21T04:46:01;23.13;;;16.33;;
44048;SDS011;29717;47.028;15.470;2023-11-21T04:48:28;22.77;;;16.00;;
44048;SDS011;29717;47.028;15.470;2023-11-21T04:50:55;18.03;;;14.67;;
44048;SDS011;29717;47.028;15.470;2023-11-21T04:53:21;18.43;;;15.00;;
44048;SDS011;29717;47.028;15.470;2023-11-21T04:55:48;17.90;;;14.40;;
44048;SDS011;29717;47.028;15.470;2023-11-21T04:58:16;17.37;;;14.40;;
44048;SDS011;29717;47.028;15.470;2023-11-21T05:00:43;18.87;;;14.47;;
44048;SDS011;29717;47.028;15.470;2023-11-21T05:03:09;19.57;;;14.67;;
44048;SDS011;29717;47.028;15.470;2023-11-21T05:05:37;21.07;;;14.83;;
44048;SDS011;29717;47.028;15.470;2023-11-21T05:08:04;20.27;;;14.47;;
44048;SDS011;29717;47.028;15.470;2023-11-21T05:10:30;19.67;;;14.90;;
44048;SDS011;29717;47.028;15.470;2023-11-21T05:12:57;22.53;;;16.63;;
44048;SDS011;29717;47.028;15.470;2023-11-21T05:15:25;22.00;;;17.50;;
44048;SDS011;29717;47.028;15.470;2023-11-21T05:17:52;25.83;;;19.07;;
44048;SDS011;29717;47.028;15.470;2023-11-21T05:20:20;22.47;;;18.10;;
44048;SDS011;29717;47.028;15.470;2023-11-21T05:22:47;24.17;;;17.27;;
44048;SDS011;29717;47.028;15.470;2023-11-21T05:25:14;24.30;;;16.77;;
44048;SDS011;29717;47.028;15.470;2023-11-21T05:27:43;22.33;;;16.97;;
44048;SDS011;29717;47.028;15.470;2023-11-21T05:30:10;23.60;;;16.63;;
44048;SDS011;29717;47.028;15.470;2023-11-21T05:32:39;20.57;;;16.70;;
44048;SDS011;29717;47.028;15.470;2023-11-21T05:35:07;23.47;;;17.27;;
44048;SDS011;29717;47.028;15.470;2023-11-21T05:37:39;22.90;;;16.60;;
44048;SDS011;29717;47.028;15.470;2023-11-21T05:40:06;21.93;;;16.37;;
44048;SDS011;29717;47.028;15.470;2023-11-21T05:42:33;22.47;;;16.27;;
44048;SDS011;29717;47.028;15.470;2023-11-21T05:45:00;22.60;;;16.60;;
44048;SDS011;29717;47.028;15.470;2023-11-21T05:47:35;23.73;;;16.50;;
44048;SDS011;29717;47.028;15.470;2023-11-21T05:50:03;18.00;;;15.97;;
44048;SDS011;29717;47.028;15.470;2023-11-21T05:52:31;20.90;;;15.93;;
44048;SDS011;29717;47.028;15.470;2023-11-21T05:54:58;20.27;;;16.53;;
44048;SDS011;29717;47.028;15.470;2023-11-21T05:57:25;21.63;;;14.90;;
44048;SDS011;29717;47.028;15.470;2023-11-21T05:59:51;24.70;;;16.67;;
44048;SDS011;29717;47.028;15.470;2023-11-21T06:02:18;22.57;;;15.83;;
44048;SDS011;29717;47.028;15.470;2023-11-21T06:04:44;21.10;;;16.57;;
44048;SDS011;29717;47.028;15.470;2023-11-21T06:07:12;21.00;;;15.90;;
44048;SDS011;29717;47.028;15.470;2023-11-21T06:09:40;22.00;;;15.53;;
44048;SDS011;29717;47.028;15.470;2023-11-21T06:12:06;24.20;;;16.70;;
44048;SDS011;29717;47.028;15.470;2023-11-21T06:14:33;23.23;;;16.73;;
44048;SDS011;29717;47.028;15.470;2023-11-21T06:17:00;21.80;;;15.50;;
44048;SDS011;29717;47.028;15.470;2023-11-21T06:19:27;21.67;;;15.93;;
44048;SDS011;29717;47.028;15.470;2023-11-21T06:21:54;21.37;;;15.47;;
44048;SDS011;29717;47.028;15.470;2023-11-21T06:24:22;16.87;;;14.90;;
44048;SDS011;29717;47.028;15.470;2023-11-21T06:26:48;21.63;;;16.67;;
44048;SDS011;29717;47.028;15.470;2023-11-21T06:29:15;21.07;;;14.87;;
44048;SDS011;29717;47.028;15.470;2023-11-21T06:31:42;25.17;;;16.97;;
44048;SDS011;29717;47.028;15.470;2023-11-21T06:34:09;19.83;;;15.83;;
44048;SDS011;29717;47.028;15.470;2023-11-21T06:36:35;23.00;;;18.53;;
44048;SDS011;29717;47.028;15.470;2023-11-21T06:39:02;22.30;;;16.43;;
44048;SDS011;29717;47.028;15.470;2023-11-21T06:41:33;23.10;;;18.17;;
44048;SDS011;29717;47.028;15.470;2023-11-21T06:44:00;20.50;;;15.47;;
44048;SDS011;29717;47.028;15.470;2023-11-21T06:46:28;19.60;;;15.47;;
44048;SDS011;29717;47.028;15.470;2023-11-21T06:48:54;19.93;;;15.00;;
44048;SDS011;29717;47.028;15.470;2023-11-21T06:51:21;19.07;;;14.93;;
44048;SDS011;29717;47.028;15.470;2023-11-21T06:53:47;23.37;;;15.37;;
44048;SDS011;29717;47.028;15.470;2023-11-21T06:56:17;21.40;;;14.43;;
44048;SDS011;29717;47.028;15.470;2023-11-21T06:58:45;17.80;;;13.80;;
44048;SDS011;29717;47.028;15.470;2023-11-21T07:01:12;18.57;;;14.07;;
44048;SDS011;29717;47.028;15.470;2023-11-21T07:03:40;18.63;;;15.30;;
44048;SDS011;29717;47.028;15.470;2023-11-21T07:06:07;19.37;;;15.07;;
44048;SDS011;29717;47.028;15.470;2023-11-21T07:08:34;22.93;;;15.77;;
44048;SDS011;29717;47.028;15.470;2023-11-21T07:11:01;19.00;;;15.20;;
44048;SDS011;29717;47.028;15.470;2023-11-21T07:13:28;21.87;;;16.37;;
44048;SDS011;29717;47.028;15.470;2023-11-21T07:15:57;23.77;;;15.77;;
44048;SDS011;29717;47.028;15.470;2023-11-21T07:18:23;21.43;;;16.37;;
44048;SDS011;29717;47.028;15.470;2023-11-21T07:20:50;21.87;;;17.20;;
44048;SDS011;29717;47.028;15.470;2023-11-21T07:23:17;20.47;;;16.87;;
44048;SDS011;29717;47.028;15.470;2023-11-21T07:25:44;27.13;;;17.93;;
44048;SDS011;29717;47.028;15.470;2023-11-21T07:28:10;19.13;;;16.87;;
44048;SDS011;29717;47.028;15.470;2023-11-21T07:30:37;21.57;;;16.77;;
44048;SDS011;29717;47.028;15.470;2023-11-21T07:33:05;25.27;;;17.40;;
44048;SDS011;29717;47.028;15.470;2023-11-21T07:35:32;20.27;;;17.97;;
44048;SDS011;29717;47.028;15.470;2023-11-21T07:37:59;23.50;;;16.77;;
44048;SDS011;29717;47.028;15.470;2023-11-21T07:40:26;26.17;;;18.13;;
44048;SDS011;29717;47.028;15.470;2023-11-21T07:42:53;23.33;;;17.63;;
44048;SDS011;29717;47.028;15.470;2023-11-21T07:45:23;23.17;;;17.33;;
44048;SDS011;29717;47.028;15.470;2023-11-21T07:47:49;23.03;;;17.73;;
44048;SDS011;29717;47.028;15.470;2023-11-21T07:50:17;26.50;;;19.17;;
44048;SDS011;29717;47.028;15.470;2023-11-21T07:52:45;23.30;;;17.30;;
44048;SDS011;29717;47.028;15.470;2023-11-21T07:55:12;24.37;;;17.97;;
44048;SDS011;29717;47.028;15.470;2023-11-21T07:57:39;23.40;;;17.07;;
44048;SDS011;29717;47.028;15.470;2023-11-21T08:00:06;24.40;;;18.03;;
44048;SDS011;29717;47.028;15.470;2023-11-21T08:02:34;25.13;;;19.27;;
44048;SDS011;29717;47.028;15.470;2023-11-21T08:05:01;23.47;;;17.20;;
44048;SDS011;29717;47.028;15.470;2023-11-21T08:07:29;23.70;;;19.53;;
44048;SDS011;29717;47.028;15.470;2023-11-21T08:09:56;26.83;;;18.83;;
44048;SDS011;29717;47.028;15.470;2023-11-21T08:12:23;28.23;;;17.97;;
44048;SDS011;29717;47.028;15.470;2023-11-21T08:14:52;21.03;;;16.43;;
44048;SDS011;29717;47.028;15.470;2023-11-21T08:17:20;21.47;;;16.13;;
44048;SDS011;29717;47.028;15.470;2023-11-21T08:19:46;20.73;;;15.77;;
44048;SDS011;29717;47.028;15.470;2023-11-21T08:22:16;18.83;;;15.47;;
44048;SDS011;29717;47.028;15.470;2023-11-21T08:24:45;21.65;;;15.68;;
44048;SDS011;29717;47.028;15.470;2023-11-21T08:27:11;22.37;;;16.53;;
44048;SDS011;29717;47.028;15.470;2023-11-21T08:29:41;22.88;;;16.23;;
44048;SDS011;29717;47.028;15.470;2023-11-21T08:32:08;23.42;;;16.90;;
44048;SDS011;29717;47.028;15.470;2023-11-21T08:34:35;20.27;;;15.43;;
44048;SDS011;29717;47.028;15.470;2023-11-21T08:37:01;25.02;;;17.38;;
44048;SDS011;29717;47.028;15.470;2023-11-21T08:39:28;21.08;;;16.85;;
44048;SDS011;29717;47.028;15.470;2023-11-21T08:41:57;22.95;;;15.32;;
44048;SDS011;29717;47.028;15.470;2023-11-21T08:44:24;26.23;;;14.60;;
44048;SDS011;29717;47.028;15.470;2023-11-21T08:46:50;20.70;;;13.82;;
44048;SDS011;29717;47.028;15.470;2023-11-21T08:49:17;20.77;;;13.93;;
44048;SDS011;29717;47.028;15.470;2023-11-21T08:51:44;20.60;;;12.40;;
44048;SDS011;29717;47.028;15.470;2023-11-21T08:54:11;16.17;;;11.70;;
44048;SDS011;29717;47.028;15.470;2023-11-21T08:56:37;16.65;;;11.45;;
44048;SDS011;29717;47.028;15.470;2023-11-21T08:59:05;16.80;;;11.13;;
44048;SDS011;29717;47.028;15.470;2023-11-21T09:01:33;16.65;;;10.90;;
44048;SDS011;29717;47.028;15.470;2023-11-21T09:04:00;11.98;;;10.57;;
44048;SDS011;29717;47.028;15.470;2023-11-21T09:06:27;15.73;;;10.50;;
44048;SDS011;29717;47.028;15.470;2023-11-21T09:08:54;19.30;;;11.50;;
44048;SDS011;29717;47.028;15.470;2023-11-21T09:11:21;16.25;;;11.43;;
44048;SDS011;29717;47.028;15.470;2023-11-21T09:13:50;13.88;;;10.30;;
44048;SDS011;29717;47.028;15.470;2023-11-21T09:16:19;13.50;;;10.93;;
44048;SDS011;29717;47.028;15.470;2023-11-21T09:18:46;16.25;;;11.75;;
44048;SDS011;29717;47.028;15.470;2023-11-21T09:21:12;17.67;;;11.48;;
44048;SDS011;29717;47.028;15.470;2023-11-21T09:23:39;14.05;;;10.27;;
44048;SDS011;29717;47.028;15.470;2023-11-21T09:26:06;16.05;;;11.32;;
44048;SDS011;29717;47.028;15.470;2023-11-21T09:28:33;12.23;;;10.00;;
44048;SDS011;29717;47.028;15.470;2023-11-21T09:31:03;11.77;;;10.05;;
44048;SDS011;29717;47.028;15.470;2023-11-21T09:33:31;14.80;;;9.93;;
44048;SDS011;29717;47.028;15.470;2023-11-21T09:35:59;17.33;;;9.90;;
44048;SDS011;29717;47.028;15.470;2023-11-21T09:38:26;11.00;;;9.07;;
44048;SDS011;29717;47.028;15.470;2023-11-21T09:40:54;11.73;;;8.45;;
44048;SDS011;29717;47.028;15.470;2023-11-21T09:43:23;13.07;;;9.13;;
44048;SDS011;29717;47.028;15.470;2023-11-21T09:45:54;12.73;;;8.75;;
44048;SDS011;29717;47.028;15.470;2023-11-21T09:48:23;11.57;;;9.00;;
44048;SDS011;29717;47.028;15.470;2023-11-21T09:50:53;15.63;;;10.80;;
44048;SDS011;29717;47.028;15.470;2023-11-21T09:53:20;11.30;;;8.88;;
44048;SDS011;29717;47.028;15.470;2023-11-21T09:55:49;11.93;;;8.52;;
44048;SDS011;29717;47.028;15.470;2023-11-21T09:58:17;12.32;;;8.38;;
44048;SDS011;29717;47.028;15.470;2023-11-21T10:00:44;13.32;;;7.80;;
44048;SDS011;29717;47.028;15.470;2023-11-21T10:03:11;10.27;;;6.15;;
44048;SDS011;29717;47.028;15.470;2023-11-21T10:05:38;9.00;;;6.22;;
44048;SDS011;29717;47.028;15.470;2023-11-21T10:08:07;12.52;;;9.23;;
44048;SDS011;29717;47.028;15.470;2023-11-21T10:10:35;20.27;;;14.63;;
44048;SDS011;29717;47.028;15.470;2023-11-21T10:13:02;16.48;;;12.82;;
44048;SDS011;29717;47.028;15.470;2023-11-21T10:15:31;9.23;;;7.45;;
44048;SDS011;29717;47.028;15.470;2023-11-21T10:18:00;14.98;;;9.60;;
44048;SDS011;29717;47.028;15.470;2023-11-21T10:20:28;12.40;;;9.43;;
44048;SDS011;29717;47.028;15.470;2023-11-21T10:22:55;13.38;;;9.63;;
44048;SDS011;29717;47.028;15.470;2023-11-21T10:25:23;13.98;;;9.02;;
44048;SDS011;29717;47.028;15.470;2023-11-21T10:27:56;11.38;;;8.13;;
44048;SDS011;29717;47.028;15.470;2023-11-21T10:30:24;9.07;;;7.53;;
44048;SDS011;29717;47.028;15.470;2023-11-21T10:32:56;9.38;;;8.20;;
44048;SDS011;29717;47.028;15.470;2023-11-21T10:35:24;13.25;;;8.40;;
44048;SDS011;29717;47.028;15.470;2023-11-21T10:37:59;11.35;;;8.07;;
44048;SDS011;29717;47.028;15.470;2023-11-21T10:40:27;11.73;;;9.07;;
44048;SDS011;29717;47.028;15.470;2023-11-21T10:42:54;9.98;;;7.82;;
44048;SDS011;29717;47.028;15.470;2023-11-21T10:45:23;12.02;;;8.63;;
44048;SDS011;29717;47.028;15.470;2023-11-21T10:47:50;12.48;;;9.07;;
44048;SDS011;29717;47.028;15.470;2023-11-21T10:50:18;11.15;;;9.10;;
44048;SDS011;29717;47.028;15.470;2023-11-21T10:52:45;10.43;;;8.38;;
44048;SDS011;29717;47.028;15.470;2023-11-21T10:55:18;9.20;;;7.45;;
44048;SDS011;29717;47.028;15.470;2023-11-21T10:57:48;8.95;;;7.20;;
44048;SDS011;29717;47.028;15.470;2023-11-21T11:00:16;9.35;;;7.55;;
44048;SDS011;29717;47.028;15.470;2023-11-21T11:02:45;10.10;;;8.02;;
44048;SDS011;29717;47.028;15.470;2023-11-21T11:05:14;8.32;;;6.32;;
44048;SDS011;29717;47.028;15.470;2023-11-21T11:07:41;7.22;;;5.97;;
44048;SDS011;29717;47.028;15.470;2023-11-21T11:10:09;8.57;;;5.88;;
44048;SDS011;29717;47.028;15.470;2023-11-21T11:12:39;9.43;;;7.07;;
44048;SDS011;29717;47.028;15.470;2023-11-21T11:15:08;10.38;;;7.30;;
44048;SDS011;29717;47.028;15.470;2023-11-21T11:17:35;8.68;;;6.07;;
44048;SDS011;29717;47.028;15.470;2023-11-21T11:20:04;7.75;;;5.22;;
44048;SDS011;29717;47.028;15.470;2023-11-21T11:22:34;5.57;;;4.90;;
44048;SDS011;29717;47.028;15.470;2023-11-21T11:25:06;5.80;;;5.20;;
44048;SDS011;29717;47.028;15.470;2023-11-21T11:27:40;5.45;;;4.28;;
44048;SDS011;29717;47.028;15.470;2023-11-21T11:30:15;6.90;;;5.38;;
44048;SDS011;29717;47.028;15.470;2023-11-21T11:32:45;9.77;;;6.47;;
44048;SDS011;29717;47.028;15.470;2023-11-21T11:35:16;8.02;;;6.10;;
44048;SDS011;29717;47.028;15.470;2023-11-21T11:37:43;7.28;;;5.88;;
44048;SDS011;29717;47.028;15.470;2023-11-21T11:40:11;6.90;;;5.28;;
44048;SDS011;29717;47.028;15.470;2023-11-21T11:42:37;8.25;;;6.00;;
44048;SDS011;29717;47.028;15.470;2023-11-21T11:45:14;7.85;;;6.32;;
44048;SDS011;29717;47.028;15.470;2023-11-21T11:47:43;9.07;;;7.25;;
44048;SDS011;29717;47.028;15.470;2023-11-21T11:50:10;7.50;;;6.35;;
44048;SDS011;29717;47.028;15.470;2023-11-21T11:52:39;7.97;;;6.75;;
44048;SDS011;29717;47.028;15.470;2023-11-21T11:55:06;10.40;;;7.28;;
44048;SDS011;29717;47.028;15.470;2023-11-21T11:57:35;10.73;;;7.60;;
44048;SDS011;29717;47.028;15.470;2023-11-21T12:00:16;9.50;;;7.25;;
44048;SDS011;29717;47.028;15.470;2023-11-21T12:02:47;9.95;;;7.32;;
44048;SDS011;29717;47.028;15.470;2023-11-21T12:05:14;10.50;;;8.23;;
44048;SDS011;29717;47.028;15.470;2023-11-21T12:07:46;10.40;;;7.32;;
44048;SDS011;29717;47.028;15.470;2023-11-21T12:10:16;7.60;;;6.65;;
44048;SDS011;29717;47.028;15.470;2023-11-21T12:12:44;9.82;;;6.60;;
44048;SDS011;29717;47.028;15.470;2023-11-21T12:15:11;9.15;;;7.32;;
44048;SDS011;29717;47.028;15.470;2023-11-21T12:17:41;11.65;;;6.50;;
44048;SDS011;29717;47.028;15.470;2023-11-21T12:20:09;8.02;;;6.57;;
44048;SDS011;29717;47.028;15.470;2023-11-21T12:22:42;9.90;;;6.10;;
44048;SDS011;29717;47.028;15.470;2023-11-21T12:25:09;6.85;;;5.57;;
44048;SDS011;29717;47.028;15.470;2023-11-21T12:27:40;8.00;;;5.68;;
44048;SDS011;29717;47.028;15.470;2023-11-21T12:30:07;9.63;;;6.55;;
44048;SDS011;29717;47.028;15.470;2023-11-21T12:32:38;10.52;;;6.38;;
44048;SDS011;29717;47.028;15.470;2023-11-21T12:35:07;11.25;;;6.57;;
44048;SDS011;29717;47.028;15.470;2023-11-21T12:37:34;8.70;;;7.38;;
44048;SDS011;29717;47.028;15.470;2023-11-21T12:40:01;8.95;;;6.82;;
44048;SDS011;29717;47.028;15.470;2023-11-21T12:42:28;8.15;;;6.15;;
44048;SDS011;29717;47.028;15.470;2023-11-21T12:45:09;8.38;;;6.70;;
44048;SDS011;29717;47.028;15.470;2023-11-21T12:47:39;8.35;;;6.40;;
44048;SDS011;29717;47.028;15.470;2023-11-21T12:50:08;8.27;;;7.00;;
44048;SDS011;29717;47.028;15.470;2023-11-21T12:52:40;8.02;;;7.03;;
44048;SDS011;29717;47.028;15.470;2023-11-21T12:55:07;10.35;;;6.95;;
44048;SDS011;29717;47.028;15.470;2023-11-21T12:57:34;9.82;;;7.13;;
44048;SDS011;29717;47.028;15.470;2023-11-21T13:00:03;7.90;;;7.13;;
44048;SDS011;29717;47.028;15.470;2023-11-21T13:02:36;8.60;;;6.85;;
44048;SDS011;29717;47.028;15.470;2023-11-21T13:05:03;8.77;;;6.78;;
44048;SDS011;29717;47.028;15.470;2023-11-21T13:07:42;7.25;;;6.45;;
44048;SDS011;29717;47.028;15.470;2023-11-21T13:10:12;8.15;;;6.88;;
44048;SDS011;29717;47.028;15.470;2023-11-21T13:12:42;7.72;;;6.85;;
44048;SDS011;29717;47.028;15.470;2023-11-21T13:15:09;8.10;;;6.75;;
44048;SDS011;29717;47.028;15.470;2023-11-21T13:17:37;8.82;;;6.60;;
44048;SDS011;29717;47.028;15.470;2023-11-21T13:20:04;8.63;;;7.15;;
44048;SDS011;29717;47.028;15.470;2023-11-21T13:22:34;9.35;;;7.53;;
44048;SDS011;29717;47.028;15.470;2023-11-21T13:25:02;6.95;;;5.53;;
44048;SDS011;29717;47.028;15.470;2023-11-21T13:27:32;6.18;;;5.53;;
44048;SDS011;29717;47.028;15.470;2023-11-21T13:29:59;8.55;;;7.60;;
44048;SDS011;29717;47.028;15.470;2023-11-21T13:32:26;8.77;;;7.85;;
44048;SDS011;29717;47.028;15.470;2023-11-21T13:34:55;9.15;;;8.15;;
44048;SDS011;29717;47.028;15.470;2023-11-21T13:37:21;9.45;;;8.25;;
44048;SDS011;29717;47.028;15.470;2023-11-21T13:39:50;9.35;;;7.95;;
44048;SDS011;29717;47.028;15.470;2023-11-21T13:42:19;9.68;;;8.30;;
44048;SDS011;29717;47.028;15.470;2023-11-21T13:44:55;8.73;;;7.82;;
44048;SDS011;29717;47.028;15.470;2023-11-21T13:47:22;10.90;;;8.23;;
44048;SDS011;29717;47.028;15.470;2023-11-21T13:49:51;9.60;;;8.60;;
44048;SDS011;29717;47.028;15.470;2023-11-21T13:52:18;10.10;;;8.50;;
44048;SDS011;29717;47.028;15.470;2023-11-21T13:54:48;10.82;;;8.48;;
44048;SDS011;29717;47.028;15.470;2023-11-21T13:57:14;9.45;;;8.50;;
44048;SDS011;29717;47.028;15.470;2023-11-21T13:59:42;10.82;;;8.27;;
44048;SDS011;29717;47.028;15.470;2023-11-21T14:02:09;9.75;;;8.70;;
44048;SDS011;29717;47.028;15.470;2023-11-21T14:04:42;12.60;;;9.85;;
44048;SDS011;29717;47.028;15.470;2023-11-21T14:07:23;12.05;;;9.48;;
44048;SDS011;29717;47.028;15.470;2023-11-21T14:09:58;14.75;;;9.10;;
44048;SDS011;29717;47.028;15.470;2023-11-21T14:12:25;21.38;;;8.15;;
44048;SDS011;29717;47.028;15.470;2023-11-21T14:14:54;22.45;;;16.10;;
44048;SDS011;29717;47.028;15.470;2023-11-21T14:17:20;17.95;;;14.82;;
44048;SDS011;29717;47.028;15.470;2023-11-21T14:19:49;17.30;;;12.35;;